| time (UTC) | temp F | wind direction | speed knots | gust knots | rain 1hr in | rain 24hr in | rain mn in | humidity % | barometer mb |
| 20260507111555 | 34 | 0 | 0.0 | 0.0 | 0.00 | 0.00 | 0.00 | 73 | 1024.0 |
| 20260507110051 | 35 | 0 | 0.0 | 0.0 | 0.00 | 0.00 | 0.00 | 73 | 1024.0 |
| 20260507104548 | 35 | 0 | 0.0 | 0.0 | 0.00 | 0.00 | 0.00 | 72 | 1024.0 |
| 20260507103053 | 35 | 0 | 0.0 | 0.0 | 0.00 | 0.00 | 0.00 | 72 | 1024.1 |
| 20260507101550 | 35 | 0 | 0.0 | 0.0 | 0.00 | 0.00 | 0.00 | 71 | 1024.0 |
| 20260507100057 | 35 | 0 | 0.0 | 0.0 | 0.00 | 0.00 | 0.00 | 71 | 1024.1 |
| 20260507094544 | 36 | 0 | 0.0 | 0.0 | 0.00 | 0.00 | 0.00 | 70 | 1024.1 |
| 20260507093049 | 36 | 0 | 0.0 | 0.0 | 0.00 | 0.00 | 0.00 | 70 | 1024.2 |
| 20260507091549 | 36 | 0 | 0.0 | 0.9 | 0.00 | 0.00 | 0.00 | 70 | 1024.3 |
| 20260507090050 | 36 | 0 | 0.0 | 0.0 | 0.00 | 0.00 | 0.00 | 70 | 1024.3 |
| 20260507084554 | 36 | 0 | 0.0 | 0.0 | 0.00 | 0.00 | 0.00 | 69 | 1024.5 |
| 20260507083050 | 36 | 0 | 0.0 | 0.0 | 0.00 | 0.00 | 0.00 | 68 | 1024.5 |
| 20260507081551 | 37 | 0 | 0.0 | 0.0 | 0.00 | 0.00 | 0.00 | 67 | 1024.5 |
| 20260507080114 | 37 | 0 | 0.0 | 0.9 | 0.00 | 0.00 | 0.00 | 67 | 1024.4 |
| 20260507074557 | 37 | 0 | 0.0 | 0.9 | 0.00 | 0.00 | 0.00 | 66 | 1024.5 |
| 20260507073058 | 38 | 0 | 0.0 | 0.9 | 0.00 | 0.00 | 0.00 | 65 | 1024.3 |
| 20260507071602 | 38 | 0 | 0.0 | 0.9 | 0.00 | 0.00 | 0.00 | 64 | 1024.4 |
| 20260507070053 | 38 | 0 | 0.0 | 0.9 | 0.00 | 0.00 | 0.00 | 62 | 1024.2 |
| 20260507064554 | 38 | 0 | 0.0 | 0.9 | 0.00 | 0.00 | 0.00 | 62 | 1024.4 |
| 20260507063054 | 38 | 0 | 0.0 | 0.9 | 0.00 | 0.00 | 0.00 | 61 | 1024.5 |
| 20260507061550 | 39 | 0 | 0.0 | 0.0 | 0.00 | 0.00 | 0.00 | 61 | 1024.4 |
| 20260507060050 | 39 | 0 | 0.0 | 0.0 | 0.00 | 0.00 | 0.00 | 59 | 1024.3 |
| 20260507054552 | 40 | 0 | 0.0 | 0.0 | 0.00 | 0.00 | 0.00 | 59 | 1024.4 |
| 20260507053048 | 40 | 0 | 0.0 | 0.0 | 0.00 | 0.00 | 0.00 | 59 | 1024.2 |
| 20260507051552 | 40 | 0 | 0.0 | 0.9 | 0.00 | 0.00 | 0.00 | 58 | 1024.1 |
| 20260507050051 | 41 | 0 | 0.0 | 0.9 | 0.00 | 0.00 | 0.00 | 58 | 1024.2 |
| 20260507044549 | 41 | 0 | 0.0 | 0.0 | 0.00 | 0.00 | 0.00 | 57 | 1024.1 |
| 20260507043046 | 42 | 0 | 0.0 | 0.0 | 0.00 | 0.00 | 0.00 | 56 | 1024.0 |
| 20260507041545 | 43 | 0 | 0.0 | 0.9 | 0.00 | 0.00 | 0.00 | 55 | 1024.1 |
| 20260507040058 | 44 | 70 | 0.0 | 0.9 | 0.00 | 0.00 | 0.00 | 54 | 1023.9 |
| 20260507034557 | 45 | 0 | 0.0 | 0.9 | 0.00 | 0.00 | 0.00 | 52 | 1023.9 |
| 20260507033049 | 46 | 70 | 0.0 | 0.9 | 0.00 | 0.00 | 0.00 | 51 | 1023.8 |
| 20260507031548 | 48 | 0 | 0.0 | 0.9 | 0.00 | 0.00 | 0.00 | 49 | 1023.4 |
| 20260507030053 | 50 | 0 | 0.0 | 0.9 | 0.00 | 0.00 | 0.00 | 46 | 1023.1 |
| 20260507024545 | 52 | 0 | 0.0 | 0.9 | 0.00 | 0.00 | 0.00 | 42 | 1023.1 |
| 20260507023045 | 54 | 0 | 0.0 | 0.9 | 0.00 | 0.00 | 0.00 | 40 | 1023.0 |
| 20260507021552 | 55 | 0 | 0.0 | 3.5 | 0.00 | 0.00 | 0.00 | 40 | 1022.8 |
| 20260507020057 | 56 | 82 | 0.0 | 0.9 | 0.00 | 0.00 | 0.00 | 38 | 1022.7 |
| 20260507014606 | 57 | 0 | 0.0 | 4.3 | 0.00 | 0.00 | 0.00 | 36 | 1022.6 |
| 20260507013053 | 58 | 68 | 0.0 | 2.6 | 0.00 | 0.00 | 0.00 | 34 | 1022.6 |
| 20260507011601 | 59 | 137 | 0.0 | 4.3 | 0.00 | 0.00 | 0.00 | 32 | 1022.6 |
| 20260507010047 | 61 | 0 | 0.0 | 2.6 | 0.00 | 0.00 | 0.00 | 30 | 1022.3 |
| 20260507004550 | 61 | 24 | 0.9 | 4.3 | 0.00 | 0.00 | 0.00 | 30 | 1022.4 |
| 20260507003048 | 60 | 330 | 0.9 | 5.2 | 0.00 | 0.00 | 0.00 | 31 | 1022.2 |
| 20260507001605 | 61 | 23 | 0.9 | 5.2 | 0.00 | 0.00 | 0.00 | 32 | 1022.3 |
| 20260507000059 | 60 | 78 | 0.9 | 5.2 | 0.00 | 0.00 | 0.00 | 35 | 1022.1 |
| 20260506234552 | 60 | 124 | 0.0 | 3.5 | 0.00 | 0.00 | 0.00 | 37 | 1022.0 |
| 20260506233052 | 60 | 60 | 2.6 | 7.0 | 0.00 | 0.00 | 0.00 | 38 | 1021.9 |
| 20260506231552 | 60 | 260 | 0.9 | 4.3 | 0.00 | 0.00 | 0.00 | 39 | 1021.9 |
| 20260506230053 | 61 | 0 | 0.0 | 3.5 | 0.00 | 0.00 | 0.00 | 38 | 1021.9 |
| 20260506224550 | 61 | 270 | 0.9 | 5.2 | 0.00 | 0.00 | 0.00 | 38 | 1021.9 |
| 20260506223048 | 62 | 129 | 1.7 | 5.2 | 0.00 | 0.00 | 0.00 | 35 | 1022.0 |
| 20260506221546 | 61 | 270 | 1.7 | 6.1 | 0.00 | 0.00 | 0.00 | 39 | 1022.3 |
| 20260506220058 | 60 | 262 | 0.0 | 6.1 | 0.00 | 0.00 | 0.00 | 39 | 1022.4 |
| 20260506214546 | 61 | 280 | 1.7 | 8.7 | 0.00 | 0.00 | 0.00 | 37 | 1022.5 |
| 20260506213057 | 62 | 0 | 1.7 | 6.1 | 0.00 | 0.00 | 0.00 | 35 | 1022.4 |
| 20260506211551 | 62 | 356 | 2.6 | 6.1 | 0.00 | 0.00 | 0.00 | 37 | 1022.5 |
| 20260506210107 | 61 | 115 | 2.6 | 7.0 | 0.00 | 0.00 | 0.00 | 38 | 1022.2 |
| 20260506204553 | 61 | 129 | 1.7 | 7.0 | 0.00 | 0.00 | 0.00 | 38 | 1022.3 |
| 20260506203138 | 61 | 75 | 1.7 | 7.8 | 0.00 | 0.00 | 0.00 | 38 | 1022.2 |
| 20260506201549 | 61 | 176 | 0.9 | 6.1 | 0.00 | 0.00 | 0.00 | 38 | 1022.2 |
| 20260506200054 | 61 | 113 | 2.6 | 4.3 | 0.00 | 0.00 | 0.00 | 38 | 1022.4 |
| 20260506194551 | 61 | 56 | 0.9 | 7.0 | 0.00 | 0.00 | 0.00 | 37 | 1022.5 |
| 20260506193048 | 61 | 146 | 1.7 | 6.1 | 0.00 | 0.00 | 0.00 | 38 | 1022.4 |
| 20260506191553 | 61 | 70 | 2.6 | 5.2 | 0.00 | 0.00 | 0.00 | 38 | 1022.4 |
| 20260506190055 | 61 | 295 | 0.9 | 5.2 | 0.00 | 0.00 | 0.00 | 40 | 1022.4 |
| 20260506184558 | 60 | 115 | 0.9 | 4.3 | 0.00 | 0.00 | 0.00 | 41 | 1022.5 |
| 20260506183049 | 60 | 65 | 1.7 | 7.0 | 0.00 | 0.00 | 0.00 | 41 | 1022.5 |
| 20260506181546 | 59 | 139 | 4.3 | 9.6 | 0.00 | 0.00 | 0.00 | 40 | 1022.4 |
| 20260506180051 | 60 | 136 | 1.7 | 6.1 | 0.00 | 0.00 | 0.00 | 40 | 1022.2 |
| 20260506174559 | 58 | 0 | 1.7 | 7.0 | 0.00 | 0.00 | 0.00 | 41 | 1022.0 |
| 20260506173056 | 58 | 141 | 0.9 | 4.3 | 0.00 | 0.00 | 0.00 | 43 | 1021.8 |
| 20260506171557 | 57 | 79 | 1.7 | 6.1 | 0.00 | 0.00 | 0.00 | 43 | 1021.8 |
| 20260506170051 | 58 | 0 | 0.0 | 6.1 | 0.00 | 0.00 | 0.00 | 43 | 1021.6 |
| 20260506164553 | 57 | 285 | 0.9 | 4.3 | 0.00 | 0.00 | 0.00 | 41 | 1021.5 |
| 20260506163109 | 56 | 282 | 1.7 | 4.3 | 0.00 | 0.00 | 0.00 | 41 | 1021.4 |
| 20260506161546 | 56 | 359 | 0.0 | 4.3 | 0.00 | 0.00 | 0.00 | 42 | 1021.4 |
| 20260506160051 | 55 | 0 | 0.9 | 2.6 | 0.00 | 0.00 | 0.00 | 43 | 1021.1 |
| 20260506154554 | 53 | 124 | 0.9 | 3.5 | 0.00 | 0.00 | 0.00 | 46 | 1020.9 |
| 20260506153052 | 50 | 120 | 0.0 | 1.7 | 0.00 | 0.00 | 0.00 | 51 | 1020.9 |
| 20260506151548 | 43 | 0 | 0.0 | 0.9 | 0.00 | 0.00 | 0.00 | 74 | 1021.1 |
| 20260506150048 | 38 | 0 | 0.0 | 0.9 | 0.00 | 0.00 | 0.00 | 80 | 1021.1 |
| 20260506144551 | 33 | 0 | 0.0 | 0.9 | 0.00 | 0.00 | 0.00 | 85 | 1021.0 |
| 20260506143051 | 31 | 0 | 0.0 | 0.9 | 0.00 | 0.00 | 0.00 | 86 | 1020.9 |
| 20260506141548 | 30 | 0 | 0.0 | 0.9 | 0.00 | 0.00 | 0.00 | 87 | 1020.8 |
| 20260506140049 | 29 | 0 | 0.0 | 0.9 | 0.00 | 0.00 | 0.00 | 88 | 1020.6 |
| 20260506134552 | 28 | 0 | 0.0 | 0.0 | 0.00 | 0.00 | 0.00 | 89 | 1020.4 |
| 20260506133047 | 28 | 0 | 0.0 | 0.0 | 0.00 | 0.00 | 0.00 | 89 | 1020.1 |
| 20260506131556 | 27 | 0 | 0.0 | 0.0 | 0.00 | 0.00 | 0.00 | 89 | 1019.9 |
| 20260506130046 | 27 | 0 | 0.0 | 0.0 | 0.00 | 0.00 | 0.00 | 89 | 1019.9 |
| 20260506124546 | 27 | 0 | 0.0 | 0.0 | 0.00 | 0.00 | 0.00 | 89 | 1019.6 |
| 20260506123055 | 27 | 0 | 0.0 | 0.0 | 0.00 | 0.00 | 0.00 | 89 | 1019.4 |
| 20260506121559 | 27 | 0 | 0.0 | 0.0 | 0.00 | 0.00 | 0.00 | 89 | 1019.2 |
| 20260506120048 | 27 | 0 | 0.0 | 0.0 | 0.00 | 0.00 | 0.00 | 89 | 1019.1 |
| 20260506114547 | 27 | 0 | 0.0 | 0.0 | 0.00 | 0.00 | 0.00 | 89 | 1018.9 |
| 20260506113050 | 27 | 0 | 0.0 | 0.0 | 0.00 | 0.00 | 0.00 | 89 | 1018.9 |